Stations météo

réclame
Mon MeteoGroup
Santon Downham, Grande-Bretagne (99118): Température de l'air & dewpoint: 25.09.2020 01:00:00 - 01.10.2020 01:00:00 (BST)Santon Downham, Grande-Bretagne (99118): Température de l'air -20cm & Température de l'air -100cm: 25.09.2020 01:00:00 - 01.10.2020 01:00:00 (BST)Santon Downham, Grande-Bretagne (99118): Quantités de précipitations: 25.09.2020 01:00:00 - 01.10.2020 01:00:00 (BST)
Date & Time tt [°C] td [°C] tt -20cm [°C] tt -100cm [°C] rr [mm]
01.10.2020 01:00:00 13,9 13,2 - - 0,0
01.10.2020 00:00:00 14,0 13,5 - - 2,6
30.09.2020 23:00:00 14,1 13,4 - - 1,2
30.09.2020 22:00:00 14,4 13,7 - - 2,0
30.09.2020 21:00:00 14,5 13,7 - - 1,0
30.09.2020 20:00:00 14,4 13,2 - - -
30.09.2020 19:00:00 14,6 13,5 - - 0,2
30.09.2020 18:00:00 14,5 12,4 - - 0,6
30.09.2020 17:00:00 15,9 12,8 - - 0,0
30.09.2020 16:00:00 16,7 12,2 - - 0,0
30.09.2020 15:00:00 17,1 12,1 - - 0,0
30.09.2020 14:00:00 17,1 12,5 - - 0,0
30.09.2020 13:00:00 16,1 11,5 - - 0,0
30.09.2020 12:00:00 16,0 11,9 - - -
30.09.2020 11:00:00 15,3 12,3 - - -
30.09.2020 10:00:00 13,6 11,9 - - 0,0
30.09.2020 09:00:00 11,3 11,0 - - 0,0
30.09.2020 08:00:00 10,8 10,7 - - 0,0
30.09.2020 07:00:00 10,8 10,8 - - 0,0
30.09.2020 06:00:00 10,7 10,7 - - 0,0
30.09.2020 05:00:00 8,8 8,8 - - 0,2
30.09.2020 04:00:00 10,0 10,0 - - 0,0
30.09.2020 03:00:00 9,7 9,7 - - 0,0
30.09.2020 02:00:00 8,9 8,9 - - 0,0
30.09.2020 01:00:00 8,5 8,4 - - 0,0
30.09.2020 00:00:00 8,1 8,0 - - 0,0
29.09.2020 23:00:00 7,0 6,8 - - 0,0
29.09.2020 22:00:00 7,9 7,5 - - 0,0
29.09.2020 21:00:00 9,1 8,6 - - 0,0
29.09.2020 20:00:00 10,5 9,8 - - 0,0
29.09.2020 19:00:00 12,4 11,5 - - 0,0
29.09.2020 18:00:00 13,8 13,0 - - -
29.09.2020 17:00:00 13,7 13,2 - - 0,0
29.09.2020 16:00:00 13,8 13,4 - - 0,4
29.09.2020 15:00:00 13,9 13,6 - - -
29.09.2020 14:00:00 14,1 13,7 - - 0,4
29.09.2020 13:00:00 14,3 14,1 - - 0,4
29.09.2020 12:00:00 14,1 14,0 - - 2,6
29.09.2020 11:00:00 13,4 13,4 - - 1,2
29.09.2020 10:00:00 12,8 12,8 14,0 14,9 0,4
29.09.2020 09:00:00 11,4 11,4 - - 1,4
29.09.2020 08:00:00 10,2 10,2 - - 0,0
29.09.2020 07:00:00 9,4 9,3 - - 0,2
29.09.2020 06:00:00 8,8 8,8 - - 0,8
29.09.2020 05:00:00 8,1 8,0 - - 0,2
29.09.2020 04:00:00 7,5 7,4 - - 0,2
29.09.2020 03:00:00 6,6 6,4 - - 0,0
29.09.2020 02:00:00 5,7 5,3 - - 0,0
29.09.2020 01:00:00 6,3 6,0 - - 0,0
29.09.2020 00:00:00 6,9 6,5 - - 0,0
28.09.2020 23:00:00 7,2 6,7 - - 0,0
28.09.2020 22:00:00 7,9 7,1 - - 0,0
28.09.2020 21:00:00 9,2 8,3 - - 0,0
28.09.2020 20:00:00 10,5 9,3 - - 0,0
28.09.2020 19:00:00 11,6 9,4 - - 0,0
28.09.2020 18:00:00 13,7 9,2 - - 0,0
28.09.2020 17:00:00 14,7 6,4 - - -
28.09.2020 16:00:00 15,8 5,7 - - 0,0
28.09.2020 15:00:00 16,1 7,1 - - 0,0
28.09.2020 14:00:00 15,4 8,1 - - 0,0
28.09.2020 13:00:00 14,2 8,7 - - 0,0
28.09.2020 12:00:00 12,5 8,9 - - 0,0
28.09.2020 11:00:00 11,5 8,5 - - 0,0
28.09.2020 10:00:00 11,2 8,5 13,9 15,0 0,0
28.09.2020 09:00:00 10,5 8,4 - - 0,0
28.09.2020 08:00:00 9,9 8,1 - - 0,0
28.09.2020 07:00:00 9,7 8,1 - - 0,0
28.09.2020 06:00:00 9,9 8,5 - - 0,0
28.09.2020 05:00:00 10,2 8,8 - - 0,0
28.09.2020 04:00:00 10,3 9,1 - - 0,0
28.09.2020 03:00:00 10,4 9,2 - - 0,0
28.09.2020 02:00:00 10,5 9,2 - - 0,0
28.09.2020 01:00:00 10,7 9,8 - - 0,0
28.09.2020 00:00:00 10,6 9,8 - - 0,0
27.09.2020 23:00:00 10,9 9,7 - - 0,0
27.09.2020 22:00:00 11,0 9,7 - - 0,0
27.09.2020 21:00:00 11,2 9,9 - - 0,0
27.09.2020 20:00:00 11,2 10,0 - - 0,0
27.09.2020 19:00:00 11,6 10,0 - - 0,0
27.09.2020 18:00:00 12,1 9,9 - - 0,0
27.09.2020 17:00:00 12,1 9,9 - - 0,0
27.09.2020 16:00:00 12,3 10,0 - - 0,0
27.09.2020 15:00:00 12,3 10,2 - - 0,0
27.09.2020 14:00:00 12,2 10,4 - - 0,0
27.09.2020 13:00:00 12,0 10,3 - - 0,0
27.09.2020 12:00:00 11,8 10,5 - - 0,0
27.09.2020 11:00:00 11,6 10,2 - - 0,0
27.09.2020 10:00:00 12,1 9,6 - - 0,0
27.09.2020 09:00:00 11,8 9,7 - - 0,0
27.09.2020 08:00:00 11,1 9,7 - - 0,0
27.09.2020 07:00:00 10,9 9,5 - - 0,2
27.09.2020 06:00:00 10,5 9,4 - - 0,0
27.09.2020 05:00:00 10,5 9,1 - - 0,0
27.09.2020 04:00:00 10,3 8,9 - - 0,2
27.09.2020 03:00:00 10,3 8,8 - - 0,2
27.09.2020 02:00:00 10,4 9,0 - - 0,0
27.09.2020 01:00:00 10,3 9,1 - - 0,2
27.09.2020 00:00:00 10,3 9,2 - - 0,0
26.09.2020 23:00:00 10,3 9,1 - - 0,4
26.09.2020 22:00:00 10,6 9,4 - - 0,2
26.09.2020 21:00:00 10,8 9,5 - - 0,0
26.09.2020 20:00:00 11,2 9,2 - - 0,2
26.09.2020 19:00:00 11,1 9,4 - - 0,0
26.09.2020 18:00:00 11,7 9,6 - - 0,0
26.09.2020 17:00:00 11,5 10,3 - - 0,0
26.09.2020 16:00:00 10,6 9,8 - - 0,8
26.09.2020 15:00:00 10,5 9,7 - - 0,8
26.09.2020 14:00:00 10,1 9,5 - - 0,8
26.09.2020 13:00:00 9,1 7,4 - - 0,0
26.09.2020 12:00:00 9,8 6,0 - - 0,0
26.09.2020 11:00:00 9,3 4,6 - - 0,0
26.09.2020 10:00:00 8,4 4,1 - - 0,0
26.09.2020 09:00:00 7,6 3,2 - - 0,0
26.09.2020 08:00:00 7,5 2,9 - - 0,0
26.09.2020 07:00:00 6,7 2,5 - - 0,0
26.09.2020 06:00:00 7,2 2,8 - - 0,0
26.09.2020 05:00:00 8,0 3,5 - - 0,0
26.09.2020 04:00:00 8,3 3,8 - - 0,0
26.09.2020 03:00:00 8,4 4,1 - - 0,0
26.09.2020 02:00:00 9,1 4,6 - - 0,0
26.09.2020 01:00:00 9,7 5,4 - - 0,0
26.09.2020 00:00:00 9,6 5,7 - - 0,0
25.09.2020 23:00:00 9,7 6,1 - - 0,0
25.09.2020 22:00:00 9,9 6,3 - - 0,0
25.09.2020 21:00:00 10,3 6,1 - - 0,0
25.09.2020 20:00:00 10,0 4,1 - - 0,0
25.09.2020 19:00:00 10,9 4,7 - - 0,0
25.09.2020 18:00:00 10,1 6,6 - - 0,2
25.09.2020 17:00:00 10,7 6,6 - - 0,4
25.09.2020 16:00:00 9,9 7,6 - - 0,6
25.09.2020 15:00:00 10,0 7,6 - - 0,4
25.09.2020 14:00:00 9,7 8,1 - - 1,0
25.09.2020 13:00:00 9,3 8,1 - - 2,0
25.09.2020 12:00:00 9,1 7,5 - - 0,8
25.09.2020 11:00:00 9,6 7,3 - - 0,0
25.09.2020 10:00:00 9,0 7,6 15,0 15,7 0,2
25.09.2020 09:00:00 8,5 7,5 - - 2,6
25.09.2020 08:00:00 8,5 7,6 - - 3,4
25.09.2020 07:00:00 8,7 8,2 - - 1,8
25.09.2020 06:00:00 8,5 8,0 - - 1,0
25.09.2020 05:00:00 8,1 7,4 - - 0,4
25.09.2020 04:00:00 8,6 8,0 - - 0,8
25.09.2020 03:00:00 8,9 8,4 - - 1,4
25.09.2020 02:00:00 9,2 8,9 - - 0,8
25.09.2020 01:00:00 9,3 9,0 - - 1,0

tt = Température de l'air
td = dewpoint
tt -20cm = Température de l'air -20cm
tt -100cm = Température de l'air -100cm
rr = Quantités de précipitations

stations d'obs. à proximité